sensor_id;sensor_type;location;lat;lon;timestamp;temperature;humidity
19622;DHT22;9958;33.196;-97.114;2023-04-03T00:01:36;22.80;99.90
19622;DHT22;9958;33.196;-97.114;2023-04-03T00:04:06;22.80;99.90
19622;DHT22;9958;33.196;-97.114;2023-04-03T00:06:34;22.80;99.90
19622;DHT22;9958;33.196;-97.114;2023-04-03T00:09:03;22.80;99.90
19622;DHT22;9958;33.196;-97.114;2023-04-03T00:11:33;22.80;99.90
19622;DHT22;9958;33.196;-97.114;2023-04-03T00:14:02;22.90;99.90
19622;DHT22;9958;33.196;-97.114;2023-04-03T00:16:30;22.70;99.90
19622;DHT22;9958;33.196;-97.114;2023-04-03T00:18:59;22.50;99.90
19622;DHT22;9958;33.196;-97.114;2023-04-03T00:21:27;22.50;99.90
19622;DHT22;9958;33.196;-97.114;2023-04-03T00:23:57;22.30;99.90
19622;DHT22;9958;33.196;-97.114;2023-04-03T00:26:25;22.30;99.90
19622;DHT22;9958;33.196;-97.114;2023-04-03T00:28:55;22.30;99.90
19622;DHT22;9958;33.196;-97.114;2023-04-03T00:31:24;22.20;99.90
19622;DHT22;9958;33.196;-97.114;2023-04-03T00:33:53;22.20;99.90
19622;DHT22;9958;33.196;-97.114;2023-04-03T00:36:21;22.10;99.90
19622;DHT22;9958;33.196;-97.114;2023-04-03T00:38:50;22.10;99.90
19622;DHT22;9958;33.196;-97.114;2023-04-03T00:41:18;22.00;99.90
19622;DHT22;9958;33.196;-97.114;2023-04-03T00:43:47;21.90;99.90
19622;DHT22;9958;33.196;-97.114;2023-04-03T00:46:18;21.80;99.90
19622;DHT22;9958;33.196;-97.114;2023-04-03T00:48:48;21.70;99.90
19622;DHT22;9958;33.196;-97.114;2023-04-03T00:51:24;21.60;99.90
19622;DHT22;9958;33.196;-97.114;2023-04-03T00:53:55;21.50;99.90
19622;DHT22;9958;33.196;-97.114;2023-04-03T00:56:28;21.30;99.90
19622;DHT22;9958;33.196;-97.114;2023-04-03T00:58:59;21.10;99.90
19622;DHT22;9958;33.196;-97.114;2023-04-03T01:01:32;21.00;99.90
19622;DHT22;9958;33.196;-97.114;2023-04-03T01:04:01;21.00;99.90
19622;DHT22;9958;33.196;-97.114;2023-04-03T01:06:32;20.90;99.90
19622;DHT22;9958;33.196;-97.114;2023-04-03T01:09:02;20.90;99.90
19622;DHT22;9958;33.196;-97.114;2023-04-03T01:11:31;20.80;99.90
19622;DHT22;9958;33.196;-97.114;2023-04-03T01:13:59;20.80;99.90
19622;DHT22;9958;33.196;-97.114;2023-04-03T01:16:30;20.70;99.90
19622;DHT22;9958;33.196;-97.114;2023-04-03T01:19:00;20.60;99.90
19622;DHT22;9958;33.196;-97.114;2023-04-03T01:21:56;20.50;99.90
19622;DHT22;9958;33.196;-97.114;2023-04-03T01:24:35;20.40;99.90
19622;DHT22;9958;33.196;-97.114;2023-04-03T01:27:06;20.30;99.90
19622;DHT22;9958;33.196;-97.114;2023-04-03T01:29:35;20.30;99.90
19622;DHT22;9958;33.196;-97.114;2023-04-03T01:32:06;20.20;99.90
19622;DHT22;9958;33.196;-97.114;2023-04-03T01:34:35;20.10;99.90
19622;DHT22;9958;33.196;-97.114;2023-04-03T01:37:04;20.10;99.90
19622;DHT22;9958;33.196;-97.114;2023-04-03T01:39:32;20.00;99.90
19622;DHT22;9958;33.196;-97.114;2023-04-03T01:42:01;19.90;99.90
19622;DHT22;9958;33.196;-97.114;2023-04-03T01:44:30;19.90;99.90
19622;DHT22;9958;33.196;-97.114;2023-04-03T01:46:58;19.80;99.90
19622;DHT22;9958;33.196;-97.114;2023-04-03T01:49:28;19.80;99.90
19622;DHT22;9958;33.196;-97.114;2023-04-03T01:51:57;19.80;99.90
19622;DHT22;9958;33.196;-97.114;2023-04-03T01:54:25;19.70;99.90
19622;DHT22;9958;33.196;-97.114;2023-04-03T01:56:54;19.60;99.90
19622;DHT22;9958;33.196;-97.114;2023-04-03T01:59:23;19.60;99.90
19622;DHT22;9958;33.196;-97.114;2023-04-03T02:01:51;19.50;99.90
19622;DHT22;9958;33.196;-97.114;2023-04-03T02:04:20;19.50;99.90
19622;DHT22;9958;33.196;-97.114;2023-04-03T02:06:50;19.40;99.90
19622;DHT22;9958;33.196;-97.114;2023-04-03T02:09:19;19.40;99.90
19622;DHT22;9958;33.196;-97.114;2023-04-03T02:11:47;19.30;99.90
19622;DHT22;9958;33.196;-97.114;2023-04-03T02:14:16;19.30;99.90
19622;DHT22;9958;33.196;-97.114;2023-04-03T02:16:44;19.20;99.90
19622;DHT22;9958;33.196;-97.114;2023-04-03T02:19:13;19.10;99.90
19622;DHT22;9958;33.196;-97.114;2023-04-03T02:21:42;19.10;99.90
19622;DHT22;9958;33.196;-97.114;2023-04-03T02:24:12;19.00;99.90
19622;DHT22;9958;33.196;-97.114;2023-04-03T02:26:41;19.00;99.90
19622;DHT22;9958;33.196;-97.114;2023-04-03T02:29:10;18.90;99.90
19622;DHT22;9958;33.196;-97.114;2023-04-03T02:31:39;18.90;99.90
19622;DHT22;9958;33.196;-97.114;2023-04-03T02:34:08;18.80;99.90
19622;DHT22;9958;33.196;-97.114;2023-04-03T02:36:36;18.80;99.90
19622;DHT22;9958;33.196;-97.114;2023-04-03T02:39:05;18.70;99.90
19622;DHT22;9958;33.196;-97.114;2023-04-03T02:41:35;18.60;99.90
19622;DHT22;9958;33.196;-97.114;2023-04-03T02:44:06;18.60;99.90
19622;DHT22;9958;33.196;-97.114;2023-04-03T02:46:34;18.50;99.90
19622;DHT22;9958;33.196;-97.114;2023-04-03T02:49:03;18.50;99.90
19622;DHT22;9958;33.196;-97.114;2023-04-03T02:51:32;18.40;99.90
19622;DHT22;9958;33.196;-97.114;2023-04-03T02:54:00;18.30;99.90
19622;DHT22;9958;33.196;-97.114;2023-04-03T02:56:29;18.30;99.90
19622;DHT22;9958;33.196;-97.114;2023-04-03T02:58:59;18.20;99.90
19622;DHT22;9958;33.196;-97.114;2023-04-03T03:01:28;18.20;99.90
19622;DHT22;9958;33.196;-97.114;2023-04-03T03:03:59;18.20;99.90
19622;DHT22;9958;33.196;-97.114;2023-04-03T03:06:28;18.10;99.90
19622;DHT22;9958;33.196;-97.114;2023-04-03T03:08:56;18.10;99.90
19622;DHT22;9958;33.196;-97.114;2023-04-03T03:11:25;18.10;99.90
19622;DHT22;9958;33.196;-97.114;2023-04-03T03:13:53;18.00;99.90
19622;DHT22;9958;33.196;-97.114;2023-04-03T03:16:24;18.00;99.90
19622;DHT22;9958;33.196;-97.114;2023-04-03T03:18:52;18.00;99.90
19622;DHT22;9958;33.196;-97.114;2023-04-03T03:21:21;17.90;99.90
19622;DHT22;9958;33.196;-97.114;2023-04-03T03:23:50;17.90;99.90
19622;DHT22;9958;33.196;-97.114;2023-04-03T03:26:18;17.90;99.90
19622;DHT22;9958;33.196;-97.114;2023-04-03T03:28:47;17.90;99.90
19622;DHT22;9958;33.196;-97.114;2023-04-03T03:31:16;17.80;99.90
19622;DHT22;9958;33.196;-97.114;2023-04-03T03:33:46;17.80;99.90
19622;DHT22;9958;33.196;-97.114;2023-04-03T03:36:14;17.80;99.90
19622;DHT22;9958;33.196;-97.114;2023-04-03T03:38:43;17.70;99.90
19622;DHT22;9958;33.196;-97.114;2023-04-03T03:41:12;17.70;99.90
19622;DHT22;9958;33.196;-97.114;2023-04-03T03:43:41;17.70;99.90
19622;DHT22;9958;33.196;-97.114;2023-04-03T03:46:09;17.70;99.90
19622;DHT22;9958;33.196;-97.114;2023-04-03T03:48:38;17.70;99.90
19622;DHT22;9958;33.196;-97.114;2023-04-03T03:51:08;17.70;99.90
19622;DHT22;9958;33.196;-97.114;2023-04-03T03:53:37;17.60;99.90
19622;DHT22;9958;33.196;-97.114;2023-04-03T03:56:06;17.60;99.90
19622;DHT22;9958;33.196;-97.114;2023-04-03T03:58:35;17.60;99.90
19622;DHT22;9958;33.196;-97.114;2023-04-03T04:01:04;17.60;99.90
19622;DHT22;9958;33.196;-97.114;2023-04-03T04:03:33;17.50;99.90
19622;DHT22;9958;33.196;-97.114;2023-04-03T04:06:02;17.50;99.90
19622;DHT22;9958;33.196;-97.114;2023-04-03T04:08:32;17.50;99.90
19622;DHT22;9958;33.196;-97.114;2023-04-03T04:11:01;17.50;99.90
19622;DHT22;9958;33.196;-97.114;2023-04-03T04:13:29;17.50;99.90
19622;DHT22;9958;33.196;-97.114;2023-04-03T04:15:58;17.50;99.90
19622;DHT22;9958;33.196;-97.114;2023-04-03T04:18:26;17.50;99.90
19622;DHT22;9958;33.196;-97.114;2023-04-03T04:20:55;17.50;99.90
19622;DHT22;9958;33.196;-97.114;2023-04-03T04:23:24;17.50;99.90
19622;DHT22;9958;33.196;-97.114;2023-04-03T04:25:56;17.50;99.90
19622;DHT22;9958;33.196;-97.114;2023-04-03T04:28:25;17.40;99.90
19622;DHT22;9958;33.196;-97.114;2023-04-03T04:30:53;17.40;99.90
19622;DHT22;9958;33.196;-97.114;2023-04-03T04:33:22;17.50;99.90
19622;DHT22;9958;33.196;-97.114;2023-04-03T04:35:50;17.40;99.90
19622;DHT22;9958;33.196;-97.114;2023-04-03T04:38:19;17.40;99.90
19622;DHT22;9958;33.196;-97.114;2023-04-03T04:40:48;17.40;99.90
19622;DHT22;9958;33.196;-97.114;2023-04-03T04:43:18;17.40;99.90
19622;DHT22;9958;33.196;-97.114;2023-04-03T04:45:47;17.30;99.90
19622;DHT22;9958;33.196;-97.114;2023-04-03T04:48:15;17.30;99.90
19622;DHT22;9958;33.196;-97.114;2023-04-03T04:50:44;17.30;99.90
19622;DHT22;9958;33.196;-97.114;2023-04-03T04:53:13;17.30;99.90
19622;DHT22;9958;33.196;-97.114;2023-04-03T04:55:41;17.30;99.90
19622;DHT22;9958;33.196;-97.114;2023-04-03T04:58:10;17.20;99.90
19622;DHT22;9958;33.196;-97.114;2023-04-03T05:00:40;17.20;99.90
19622;DHT22;9958;33.196;-97.114;2023-04-03T05:03:09;17.20;99.90
19622;DHT22;9958;33.196;-97.114;2023-04-03T05:05:38;17.20;99.90
19622;DHT22;9958;33.196;-97.114;2023-04-03T05:08:06;17.20;99.90
19622;DHT22;9958;33.196;-97.114;2023-04-03T05:10:35;17.30;99.90
19622;DHT22;9958;33.196;-97.114;2023-04-03T05:13:04;17.30;99.90
19622;DHT22;9958;33.196;-97.114;2023-04-03T05:15:33;17.20;99.90
19622;DHT22;9958;33.196;-97.114;2023-04-03T05:18:03;17.20;99.90
19622;DHT22;9958;33.196;-97.114;2023-04-03T05:20:33;17.20;99.90
19622;DHT22;9958;33.196;-97.114;2023-04-03T05:23:01;17.20;99.90
19622;DHT22;9958;33.196;-97.114;2023-04-03T05:25:30;17.20;99.90
19622;DHT22;9958;33.196;-97.114;2023-04-03T05:27:59;17.20;99.90
19622;DHT22;9958;33.196;-97.114;2023-04-03T05:30:28;17.20;99.90
19622;DHT22;9958;33.196;-97.114;2023-04-03T05:32:57;17.20;99.90
19622;DHT22;9958;33.196;-97.114;2023-04-03T05:35:28;17.20;99.90
19622;DHT22;9958;33.196;-97.114;2023-04-03T05:37:56;17.30;99.90
19622;DHT22;9958;33.196;-97.114;2023-04-03T05:40:25;17.30;99.90
19622;DHT22;9958;33.196;-97.114;2023-04-03T05:42:53;17.20;99.90
19622;DHT22;9958;33.196;-97.114;2023-04-03T05:45:22;17.20;99.90
19622;DHT22;9958;33.196;-97.114;2023-04-03T05:47:50;17.20;99.90
19622;DHT22;9958;33.196;-97.114;2023-04-03T05:50:19;17.20;99.90
19622;DHT22;9958;33.196;-97.114;2023-04-03T05:52:50;17.20;99.90
19622;DHT22;9958;33.196;-97.114;2023-04-03T05:55:20;17.20;99.90
19622;DHT22;9958;33.196;-97.114;2023-04-03T05:57:48;17.20;99.90
19622;DHT22;9958;33.196;-97.114;2023-04-03T06:00:17;17.20;99.90
19622;DHT22;9958;33.196;-97.114;2023-04-03T06:02:46;17.20;99.90
19622;DHT22;9958;33.196;-97.114;2023-04-03T06:05:15;17.20;99.90
19622;DHT22;9958;33.196;-97.114;2023-04-03T06:07:43;17.20;99.90
19622;DHT22;9958;33.196;-97.114;2023-04-03T06:10:13;17.20;99.90
19622;DHT22;9958;33.196;-97.114;2023-04-03T06:12:42;17.20;99.90
19622;DHT22;9958;33.196;-97.114;2023-04-03T06:15:11;17.30;99.90
19622;DHT22;9958;33.196;-97.114;2023-04-03T06:17:39;17.30;99.90
19622;DHT22;9958;33.196;-97.114;2023-04-03T06:20:08;17.30;99.90
19622;DHT22;9958;33.196;-97.114;2023-04-03T06:22:37;17.30;99.90
19622;DHT22;9958;33.196;-97.114;2023-04-03T06:25:06;17.30;99.90
19622;DHT22;9958;33.196;-97.114;2023-04-03T06:27:37;17.30;99.90
19622;DHT22;9958;33.196;-97.114;2023-04-03T06:30:07;17.30;99.90
19622;DHT22;9958;33.196;-97.114;2023-04-03T06:32:35;17.30;99.90
19622;DHT22;9958;33.196;-97.114;2023-04-03T06:35:04;17.30;99.90
19622;DHT22;9958;33.196;-97.114;2023-04-03T06:37:33;17.40;99.90
19622;DHT22;9958;33.196;-97.114;2023-04-03T06:40:02;17.40;99.90
19622;DHT22;9958;33.196;-97.114;2023-04-03T06:42:30;17.40;99.90
19622;DHT22;9958;33.196;-97.114;2023-04-03T06:45:00;17.40;99.90
19622;DHT22;9958;33.196;-97.114;2023-04-03T06:47:29;17.40;99.90
19622;DHT22;9958;33.196;-97.114;2023-04-03T06:49:58;17.40;99.90
19622;DHT22;9958;33.196;-97.114;2023-04-03T06:52:26;17.40;99.90
19622;DHT22;9958;33.196;-97.114;2023-04-03T06:54:54;17.40;99.90
19622;DHT22;9958;33.196;-97.114;2023-04-03T06:57:25;17.40;99.90
19622;DHT22;9958;33.196;-97.114;2023-04-03T06:59:54;17.40;99.90
19622;DHT22;9958;33.196;-97.114;2023-04-03T07:02:24;17.40;99.90
19622;DHT22;9958;33.196;-97.114;2023-04-03T07:04:52;17.40;99.90
19622;DHT22;9958;33.196;-97.114;2023-04-03T07:07:21;17.40;99.90
19622;DHT22;9958;33.196;-97.114;2023-04-03T07:09:49;17.40;99.90
19622;DHT22;9958;33.196;-97.114;2023-04-03T07:12:18;17.40;99.90
19622;DHT22;9958;33.196;-97.114;2023-04-03T07:14:46;17.40;99.90
19622;DHT22;9958;33.196;-97.114;2023-04-03T07:17:14;17.40;99.90
19622;DHT22;9958;33.196;-97.114;2023-04-03T07:19:44;17.40;99.90
19622;DHT22;9958;33.196;-97.114;2023-04-03T07:22:13;17.40;99.90
19622;DHT22;9958;33.196;-97.114;2023-04-03T07:24:41;17.40;99.90
19622;DHT22;9958;33.196;-97.114;2023-04-03T07:27:09;17.40;99.90
19622;DHT22;9958;33.196;-97.114;2023-04-03T07:29:39;17.40;99.90
19622;DHT22;9958;33.196;-97.114;2023-04-03T07:32:07;17.40;99.90
19622;DHT22;9958;33.196;-97.114;2023-04-03T07:34:36;17.40;99.90
19622;DHT22;9958;33.196;-97.114;2023-04-03T07:37:06;17.40;99.90
19622;DHT22;9958;33.196;-97.114;2023-04-03T07:39:35;17.40;99.90
19622;DHT22;9958;33.196;-97.114;2023-04-03T07:42:03;17.40;99.90
19622;DHT22;9958;33.196;-97.114;2023-04-03T07:44:32;17.40;99.90
19622;DHT22;9958;33.196;-97.114;2023-04-03T07:47:00;17.40;99.90
19622;DHT22;9958;33.196;-97.114;2023-04-03T07:49:28;17.30;99.90
19622;DHT22;9958;33.196;-97.114;2023-04-03T07:51:59;17.40;99.90
19622;DHT22;9958;33.196;-97.114;2023-04-03T07:54:29;17.40;99.90
19622;DHT22;9958;33.196;-97.114;2023-04-03T07:56:57;17.30;99.90
19622;DHT22;9958;33.196;-97.114;2023-04-03T07:59:26;17.30;99.90
19622;DHT22;9958;33.196;-97.114;2023-04-03T08:01:55;17.30;99.90
19622;DHT22;9958;33.196;-97.114;2023-04-03T08:04:23;17.30;99.90
19622;DHT22;9958;33.196;-97.114;2023-04-03T08:06:52;17.30;99.90
19622;DHT22;9958;33.196;-97.114;2023-04-03T08:09:20;17.30;99.90
19622;DHT22;9958;33.196;-97.114;2023-04-03T08:11:50;17.30;99.90
19622;DHT22;9958;33.196;-97.114;2023-04-03T08:14:20;17.30;99.90
19622;DHT22;9958;33.196;-97.114;2023-04-03T08:16:48;17.30;99.90
19622;DHT22;9958;33.196;-97.114;2023-04-03T08:19:17;17.30;99.90
19622;DHT22;9958;33.196;-97.114;2023-04-03T08:21:45;17.30;99.90
19622;DHT22;9958;33.196;-97.114;2023-04-03T08:24:13;17.30;99.90
19622;DHT22;9958;33.196;-97.114;2023-04-03T08:26:42;17.40;99.90
19622;DHT22;9958;33.196;-97.114;2023-04-03T08:29:12;17.40;99.90
19622;DHT22;9958;33.196;-97.114;2023-04-03T08:31:40;17.40;99.90
19622;DHT22;9958;33.196;-97.114;2023-04-03T08:34:09;17.40;99.90
19622;DHT22;9958;33.196;-97.114;2023-04-03T08:36:37;17.40;99.90
19622;DHT22;9958;33.196;-97.114;2023-04-03T08:39:06;17.40;99.90
19622;DHT22;9958;33.196;-97.114;2023-04-03T08:41:35;17.40;99.90
19622;DHT22;9958;33.196;-97.114;2023-04-03T08:44:19;17.40;99.90
19622;DHT22;9958;33.196;-97.114;2023-04-03T08:49:42;17.40;99.90
19622;DHT22;9958;33.196;-97.114;2023-04-03T08:52:15;17.40;99.90
19622;DHT22;9958;33.196;-97.114;2023-04-03T08:54:50;17.40;99.90
19622;DHT22;9958;33.196;-97.114;2023-04-03T08:57:26;17.50;99.90
19622;DHT22;9958;33.196;-97.114;2023-04-03T08:59:58;17.40;99.90
19622;DHT22;9958;33.196;-97.114;2023-04-03T09:02:31;17.40;99.90
19622;DHT22;9958;33.196;-97.114;2023-04-03T09:05:05;17.40;99.90
19622;DHT22;9958;33.196;-97.114;2023-04-03T09:07:43;17.40;99.90
19622;DHT22;9958;33.196;-97.114;2023-04-03T09:10:14;17.40;99.90
19622;DHT22;9958;33.196;-97.114;2023-04-03T09:12:46;17.40;99.90
19622;DHT22;9958;33.196;-97.114;2023-04-03T09:15:20;17.40;99.90
19622;DHT22;9958;33.196;-97.114;2023-04-03T09:17:57;17.40;99.90
19622;DHT22;9958;33.196;-97.114;2023-04-03T09:20:38;17.40;99.90
19622;DHT22;9958;33.196;-97.114;2023-04-03T09:23:22;17.40;99.90
19622;DHT22;9958;33.196;-97.114;2023-04-03T09:25:58;17.40;99.90
19622;DHT22;9958;33.196;-97.114;2023-04-03T09:28:28;17.30;99.90
19622;DHT22;9958;33.196;-97.114;2023-04-03T09:31:00;17.30;99.90
19622;DHT22;9958;33.196;-97.114;2023-04-03T09:33:30;17.30;99.90
19622;DHT22;9958;33.196;-97.114;2023-04-03T09:35:59;17.30;99.90
19622;DHT22;9958;33.196;-97.114;2023-04-03T09:38:27;17.30;99.90
19622;DHT22;9958;33.196;-97.114;2023-04-03T09:41:06;17.30;99.90
19622;DHT22;9958;33.196;-97.114;2023-04-03T09:43:35;17.30;99.90
19622;DHT22;9958;33.196;-97.114;2023-04-03T09:46:30;17.30;99.90
19622;DHT22;9958;33.196;-97.114;2023-04-03T09:49:01;17.30;99.90
19622;DHT22;9958;33.196;-97.114;2023-04-03T09:51:31;17.30;99.90
19622;DHT22;9958;33.196;-97.114;2023-04-03T09:53:59;17.30;99.90
19622;DHT22;9958;33.196;-97.114;2023-04-03T09:56:28;17.30;99.90
19622;DHT22;9958;33.196;-97.114;2023-04-03T09:59:13;17.30;99.90
19622;DHT22;9958;33.196;-97.114;2023-04-03T10:01:57;17.30;99.90
19622;DHT22;9958;33.196;-97.114;2023-04-03T10:04:37;17.30;99.90
19622;DHT22;9958;33.196;-97.114;2023-04-03T10:07:27;17.30;99.90
19622;DHT22;9958;33.196;-97.114;2023-04-03T10:09:57;17.30;99.90
19622;DHT22;9958;33.196;-97.114;2023-04-03T10:12:25;17.30;99.90
19622;DHT22;9958;33.196;-97.114;2023-04-03T10:14:58;17.30;99.90
19622;DHT22;9958;33.196;-97.114;2023-04-03T10:17:36;17.30;99.90
19622;DHT22;9958;33.196;-97.114;2023-04-03T10:20:16;17.30;99.90
19622;DHT22;9958;33.196;-97.114;2023-04-03T10:22:58;17.30;99.90
19622;DHT22;9958;33.196;-97.114;2023-04-03T10:25:32;17.30;99.90
19622;DHT22;9958;33.196;-97.114;2023-04-03T10:28:07;17.20;99.90
19622;DHT22;9958;33.196;-97.114;2023-04-03T10:30:45;17.20;99.90
19622;DHT22;9958;33.196;-97.114;2023-04-03T10:33:37;17.20;99.90
19622;DHT22;9958;33.196;-97.114;2023-04-03T10:36:12;17.20;99.90
19622;DHT22;9958;33.196;-97.114;2023-04-03T10:38:54;17.30;99.90
19622;DHT22;9958;33.196;-97.114;2023-04-03T10:41:34;17.20;99.90
19622;DHT22;9958;33.196;-97.114;2023-04-03T10:44:15;17.20;99.90
19622;DHT22;9958;33.196;-97.114;2023-04-03T10:46:48;17.30;99.90
19622;DHT22;9958;33.196;-97.114;2023-04-03T10:49:30;17.30;99.90
19622;DHT22;9958;33.196;-97.114;2023-04-03T10:52:06;17.30;99.90
19622;DHT22;9958;33.196;-97.114;2023-04-03T10:54:43;17.30;99.90
19622;DHT22;9958;33.196;-97.114;2023-04-03T10:57:15;17.30;99.90
19622;DHT22;9958;33.196;-97.114;2023-04-03T10:59:45;17.30;99.90
19622;DHT22;9958;33.196;-97.114;2023-04-03T11:02:18;17.30;99.90
19622;DHT22;9958;33.196;-97.114;2023-04-03T11:04:55;17.30;99.90
19622;DHT22;9958;33.196;-97.114;2023-04-03T11:07:26;17.30;99.90
19622;DHT22;9958;33.196;-97.114;2023-04-03T11:10:02;17.30;99.90
19622;DHT22;9958;33.196;-97.114;2023-04-03T11:12:38;17.30;99.90
19622;DHT22;9958;33.196;-97.114;2023-04-03T11:15:12;17.30;99.90
19622;DHT22;9958;33.196;-97.114;2023-04-03T11:17:48;17.20;99.90
19622;DHT22;9958;33.196;-97.114;2023-04-03T11:20:22;17.20;99.90
19622;DHT22;9958;33.196;-97.114;2023-04-03T11:22:58;17.20;99.90
19622;DHT22;9958;33.196;-97.114;2023-04-03T11:25:29;17.20;99.90
19622;DHT22;9958;33.196;-97.114;2023-04-03T11:28:00;17.20;99.90
19622;DHT22;9958;33.196;-97.114;2023-04-03T11:30:33;17.20;99.90
19622;DHT22;9958;33.196;-97.114;2023-04-03T11:33:19;17.30;99.90
19622;DHT22;9958;33.196;-97.114;2023-04-03T11:35:53;17.20;99.90
19622;DHT22;9958;33.196;-97.114;2023-04-03T11:38:25;17.20;99.90
19622;DHT22;9958;33.196;-97.114;2023-04-03T11:40:56;17.20;99.90
19622;DHT22;9958;33.196;-97.114;2023-04-03T11:43:26;17.20;99.90
19622;DHT22;9958;33.196;-97.114;2023-04-03T11:45:59;17.20;99.90
19622;DHT22;9958;33.196;-97.114;2023-04-03T11:48:49;17.20;99.90
19622;DHT22;9958;33.196;-97.114;2023-04-03T11:51:48;17.20;99.90
19622;DHT22;9958;33.196;-97.114;2023-04-03T11:54:48;17.20;99.90
19622;DHT22;9958;33.196;-97.114;2023-04-03T12:01:04;17.20;99.90
19622;DHT22;9958;33.196;-97.114;2023-04-03T12:09:31;17.20;99.90
19622;DHT22;9958;33.196;-97.114;2023-04-03T12:12:01;17.20;99.90
19622;DHT22;9958;33.196;-97.114;2023-04-03T12:14:49;17.20;99.90
19622;DHT22;9958;33.196;-97.114;2023-04-03T12:17:22;17.30;99.90
19622;DHT22;9958;33.196;-97.114;2023-04-03T12:19:52;17.30;99.90
19622;DHT22;9958;33.196;-97.114;2023-04-03T12:22:21;17.30;99.90
19622;DHT22;9958;33.196;-97.114;2023-04-03T12:24:52;17.30;99.90
19622;DHT22;9958;33.196;-97.114;2023-04-03T12:27:38;17.30;99.90
19622;DHT22;9958;33.196;-97.114;2023-04-03T12:30:22;17.30;99.90
19622;DHT22;9958;33.196;-97.114;2023-04-03T12:33:20;17.30;99.90
19622;DHT22;9958;33.196;-97.114;2023-04-03T12:36:02;17.30;99.90
19622;DHT22;9958;33.196;-97.114;2023-04-03T12:38:54;17.40;99.90
19622;DHT22;9958;33.196;-97.114;2023-04-03T12:41:36;17.50;99.90
19622;DHT22;9958;33.196;-97.114;2023-04-03T12:47:23;17.90;99.90
19622;DHT22;9958;33.196;-97.114;2023-04-03T12:49:54;18.40;99.90
19622;DHT22;9958;33.196;-97.114;2023-04-03T12:52:36;18.90;99.90
19622;DHT22;9958;33.196;-97.114;2023-04-03T12:55:15;19.40;99.90
19622;DHT22;9958;33.196;-97.114;2023-04-03T12:57:45;19.80;99.90
19622;DHT22;9958;33.196;-97.114;2023-04-03T13:00:30;20.20;99.90
19622;DHT22;9958;33.196;-97.114;2023-04-03T13:03:00;20.90;99.90
19622;DHT22;9958;33.196;-97.114;2023-04-03T13:05:30;21.60;99.90
19622;DHT22;9958;33.196;-97.114;2023-04-03T13:08:02;22.00;99.90
19622;DHT22;9958;33.196;-97.114;2023-04-03T13:10:31;22.20;99.90
19622;DHT22;9958;33.196;-97.114;2023-04-03T13:13:09;22.20;99.90
19622;DHT22;9958;33.196;-97.114;2023-04-03T13:15:43;22.20;99.90
19622;DHT22;9958;33.196;-97.114;2023-04-03T13:18:29;22.00;99.90
19622;DHT22;9958;33.196;-97.114;2023-04-03T13:21:03;21.80;99.90
19622;DHT22;9958;33.196;-97.114;2023-04-03T13:23:33;21.70;99.90
19622;DHT22;9958;33.196;-97.114;2023-04-03T13:26:03;21.60;99.90
19622;DHT22;9958;33.196;-97.114;2023-04-03T13:28:34;21.50;99.90
19622;DHT22;9958;33.196;-97.114;2023-04-03T13:31:07;21.40;99.90
19622;DHT22;9958;33.196;-97.114;2023-04-03T13:33:37;21.30;99.90
19622;DHT22;9958;33.196;-97.114;2023-04-03T13:36:09;21.30;99.90
19622;DHT22;9958;33.196;-97.114;2023-04-03T13:38:44;21.20;99.90
19622;DHT22;9958;33.196;-97.114;2023-04-03T13:41:25;21.20;99.90
19622;DHT22;9958;33.196;-97.114;2023-04-03T13:43:55;21.20;99.90
19622;DHT22;9958;33.196;-97.114;2023-04-03T13:46:25;21.20;99.90
19622;DHT22;9958;33.196;-97.114;2023-04-03T13:48:55;21.30;99.90
19622;DHT22;9958;33.196;-97.114;2023-04-03T13:51:26;21.30;99.90
19622;DHT22;9958;33.196;-97.114;2023-04-03T13:53:57;21.30;99.90
19622;DHT22;9958;33.196;-97.114;2023-04-03T13:56:31;21.40;99.90
19622;DHT22;9958;33.196;-97.114;2023-04-03T13:59:05;21.50;99.90
19622;DHT22;9958;33.196;-97.114;2023-04-03T14:01:40;21.50;99.90
19622;DHT22;9958;33.196;-97.114;2023-04-03T14:04:16;21.60;99.90
19622;DHT22;9958;33.196;-97.114;2023-04-03T14:06:45;21.70;99.90
19622;DHT22;9958;33.196;-97.114;2023-04-03T14:09:14;21.80;99.90
19622;DHT22;9958;33.196;-97.114;2023-04-03T14:11:43;21.80;99.90
19622;DHT22;9958;33.196;-97.114;2023-04-03T14:14:16;22.00;99.90
19622;DHT22;9958;33.196;-97.114;2023-04-03T14:16:47;22.10;99.90
19622;DHT22;9958;33.196;-97.114;2023-04-03T14:19:20;22.20;99.90
19622;DHT22;9958;33.196;-97.114;2023-04-03T14:21:49;22.20;99.90
19622;DHT22;9958;33.196;-97.114;2023-04-03T14:24:19;22.30;99.90
19622;DHT22;9958;33.196;-97.114;2023-04-03T14:26:48;22.40;99.90
19622;DHT22;9958;33.196;-97.114;2023-04-03T14:29:19;22.60;99.90
19622;DHT22;9958;33.196;-97.114;2023-04-03T14:31:49;22.70;99.90
19622;DHT22;9958;33.196;-97.114;2023-04-03T14:34:17;22.80;99.90
19622;DHT22;9958;33.196;-97.114;2023-04-03T14:36:46;22.80;99.90
19622;DHT22;9958;33.196;-97.114;2023-04-03T14:39:17;23.00;99.90
19622;DHT22;9958;33.196;-97.114;2023-04-03T14:41:46;23.10;99.90
19622;DHT22;9958;33.196;-97.114;2023-04-03T14:44:15;23.20;99.90
19622;DHT22;9958;33.196;-97.114;2023-04-03T14:46:45;23.30;99.90
19622;DHT22;9958;33.196;-97.114;2023-04-03T14:49:15;23.50;99.90
19622;DHT22;9958;33.196;-97.114;2023-04-03T14:51:44;23.60;99.90
19622;DHT22;9958;33.196;-97.114;2023-04-03T14:54:14;23.70;99.90
19622;DHT22;9958;33.196;-97.114;2023-04-03T14:56:42;23.80;99.90
19622;DHT22;9958;33.196;-97.114;2023-04-03T14:59:12;23.90;99.90
19622;DHT22;9958;33.196;-97.114;2023-04-03T15:01:41;24.10;99.90
19622;DHT22;9958;33.196;-97.114;2023-04-03T15:04:13;24.20;99.90
19622;DHT22;9958;33.196;-97.114;2023-04-03T15:06:43;24.30;99.90
19622;DHT22;9958;33.196;-97.114;2023-04-03T15:09:19;24.40;99.90
19622;DHT22;9958;33.196;-97.114;2023-04-03T15:11:49;24.50;99.90
19622;DHT22;9958;33.196;-97.114;2023-04-03T15:14:18;24.60;99.90
19622;DHT22;9958;33.196;-97.114;2023-04-03T15:16:46;24.70;99.90
19622;DHT22;9958;33.196;-97.114;2023-04-03T15:19:16;24.90;99.90
19622;DHT22;9958;33.196;-97.114;2023-04-03T15:21:45;25.00;99.90
19622;DHT22;9958;33.196;-97.114;2023-04-03T15:24:13;25.20;99.90
19622;DHT22;9958;33.196;-97.114;2023-04-03T15:26:41;25.30;99.90
19622;DHT22;9958;33.196;-97.114;2023-04-03T15:29:10;25.30;99.90
19622;DHT22;9958;33.196;-97.114;2023-04-03T15:31:38;25.40;99.90
19622;DHT22;9958;33.196;-97.114;2023-04-03T15:34:06;25.50;99.90
19622;DHT22;9958;33.196;-97.114;2023-04-03T15:36:36;25.70;99.90
19622;DHT22;9958;33.196;-97.114;2023-04-03T15:39:05;25.80;99.90
19622;DHT22;9958;33.196;-97.114;2023-04-03T15:41:33;25.90;99.90
19622;DHT22;9958;33.196;-97.114;2023-04-03T15:44:02;26.10;99.90
19622;DHT22;9958;33.196;-97.114;2023-04-03T15:46:30;26.20;99.90
19622;DHT22;9958;33.196;-97.114;2023-04-03T15:48:58;26.40;99.90
19622;DHT22;9958;33.196;-97.114;2023-04-03T15:51:27;26.50;99.90
19622;DHT22;9958;33.196;-97.114;2023-04-03T15:53:57;26.60;99.90
19622;DHT22;9958;33.196;-97.114;2023-04-03T15:56:25;26.80;99.90